This is the latest recevied weather packets stored in our database for station/object K7KRJ-10. If no packets are shown the sender has not sent any weather packets the latest 1 day(s).
| Time | Temp. | Humidity | Pressure | Rain* | Wind** | Luminosity | Snow |
|---|---|---|---|---|---|---|---|
| 1778110674 | 28.33° C | 19% | 1010.5 hPa | 0 mm | - | 456 W/m² | - |
| 1778108872 | 28.33° C | 19% | 1010.7 hPa | 0 mm | - | 578 W/m² | - |
| 1778107968 | 28.33° C | 18% | 1010.8 hPa | 0 mm | - | 639 W/m² | - |
| 1778107064 | 28.33° C | 19% | 1010.9 hPa | 0 mm | - | 696 W/m² | - |
| 1778095320 | 25.56° C | 22% | 1013.2 hPa | 0 mm | - | 1065 W/m² | - |
| 1778093512 | 25° C | 22% | 1013.7 hPa | 0 mm | - | 1055 W/m² | - |
| 1778088093 | 22.78° C | 28% | 1014.1 hPa | 0 mm | - | 899 W/m² | - |
| 1778084483 | 21.67° C | 30% | 1014 hPa | 0 mm | - | 706 W/m² | - |
| 1778080351 | 20° C | 33% | 1014 hPa | 0 mm | - | 457 W/m² | - |
| 1778079448 | 19.44° C | 33% | 1013.9 hPa | 0 mm | - | 392 W/m² | - |
| 1778077644 | 18.33° C | 36% | 1014.2 hPa | 0 mm | - | 261 W/m² | - |
| 1778076743 | 18.33° C | 37% | 1013.9 hPa | 0 mm | - | 195 W/m² | - |
| 1778074935 | 17.22° C | 39% | 1013.4 hPa | 0 mm | - | 97 W/m² | - |
| 1778067718 | 15° C | 43% | 1012.1 hPa | 0 mm | - | 0 W/m² | - |
| 1778066815 | 15° C | 44% | 1012.2 hPa | 0 mm | - | 0 W/m² | - |
| 1778065914 | 15° C | 43% | 1012 hPa | 0 mm | - | 0 W/m² | - |
| 1778064109 | 16.11° C | 40% | 1011.9 hPa | 0 mm | - | 0 W/m² | - |
| 1778063207 | 16.11° C | 40% | 1011.9 hPa | 0 mm | - | 0 W/m² | - |
| 1778061398 | 16.11° C | 40% | 1011.7 hPa | 0 mm | - | 0 W/m² | - |
| 1778059594 | 16.67° C | 38% | 1011.5 hPa | 0 mm | - | 0 W/m² | - |
| 1778058692 | 16.67° C | 38% | 1011.8 hPa | 0 mm | - | 0 W/m² | - |
| 1778056884 | 16.11° C | 41% | 1011.4 hPa | 0 mm | - | 0 W/m² | - |
| 1778055981 | 16.11° C | 40% | 1011.5 hPa | 0 mm | - | 0 W/m² | - |
| 1778055078 | 16.67° C | 40% | 1011.5 hPa | 0 mm | - | 0 W/m² | - |
| 1778052369 | 17.78° C | 37% | 1011.3 hPa | 0 mm | - | 0 W/m² | - |
* Rain latest hour (hover to see other rain measurements)
** Current wind speed in m/s (hover to see current wind gust speed)